createdAt,value
2016-09-29T00:00:20.766Z,0.00
2016-09-29T00:01:21.284Z,0.00
2016-09-29T00:02:21.956Z,0.00
2016-09-29T00:03:22.314Z,0.00
2016-09-29T00:04:22.833Z,0.00
2016-09-29T00:05:23.489Z,0.00
2016-09-29T00:06:23.854Z,0.00
2016-09-29T00:07:24.371Z,0.00
2016-09-29T00:08:24.873Z,0.00
2016-09-29T00:09:25.390Z,0.00
2016-09-29T00:10:25.907Z,0.00
2016-09-29T00:11:26.428Z,0.00
2016-09-29T00:12:26.935Z,0.00
2016-09-29T00:13:27.445Z,0.00
2016-09-29T00:14:28.123Z,0.00
2016-09-29T00:15:28.468Z,0.00
2016-09-29T00:16:29.131Z,0.00
2016-09-29T00:17:29.649Z,0.00
2016-09-29T00:18:30.007Z,0.00
2016-09-29T00:19:30.670Z,0.00
2016-09-29T00:20:31.030Z,0.00
2016-09-29T00:21:31.542Z,0.00
2016-09-29T00:22:32.207Z,0.00
2016-09-29T00:23:32.565Z,0.00
2016-09-29T00:24:33.229Z,0.00
2016-09-29T00:25:33.613Z,0.00
2016-09-29T00:26:34.111Z,0.00
2016-09-29T00:27:34.621Z,0.00
2016-09-29T00:28:35.137Z,0.00
2016-09-29T00:29:35.653Z,0.00
2016-09-29T00:30:36.161Z,0.00
2016-09-29T00:31:36.699Z,0.00
2016-09-29T00:32:37.187Z,0.00
2016-09-29T00:33:37.847Z,0.00
2016-09-29T00:34:38.209Z,0.00
2016-09-29T00:35:38.726Z,0.00
2016-09-29T00:36:39.239Z,0.00
2016-09-29T00:37:39.759Z,0.00
2016-09-29T00:38:40.276Z,0.00
2016-09-29T00:39:40.791Z,0.00
2016-09-29T00:40:41.305Z,0.00
2016-09-29T00:41:41.848Z,0.00
2016-09-29T00:42:42.333Z,0.00
2016-09-29T00:43:42.842Z,0.00
2016-09-29T00:44:43.357Z,0.00
2016-09-29T00:45:43.890Z,0.00
2016-09-29T00:46:44.386Z,0.00
2016-09-29T00:47:44.904Z,0.00
2016-09-29T00:48:45.402Z,0.00
2016-09-29T00:49:45.915Z,0.00
2016-09-29T00:50:46.577Z,0.00
2016-09-29T00:51:46.962Z,0.00
2016-09-29T00:52:47.456Z,0.00
2016-09-29T00:53:47.966Z,0.00
2016-09-29T00:54:48.478Z,0.00
2016-09-29T00:55:48.991Z,0.00
2016-09-29T00:56:49.506Z,0.00
2016-09-29T00:57:50.018Z,0.00
2016-09-29T00:58:50.525Z,0.00
2016-09-29T00:59:51.038Z,0.00
2016-09-29T01:00:51.699Z,0.00
2016-09-29T01:01:52.055Z,0.00
2016-09-29T01:02:52.570Z,0.00
2016-09-29T01:03:53.084Z,0.00
2016-09-29T01:04:53.594Z,0.00
2016-09-29T01:05:55.758Z,0.00
2016-09-29T01:06:54.617Z,0.00
2016-09-29T01:07:55.138Z,0.00
2016-09-29T01:08:55.648Z,0.00
2016-09-29T01:09:56.157Z,0.00
2016-09-29T01:10:56.663Z,0.00
2016-09-29T01:11:57.177Z,0.00
2016-09-29T01:12:57.717Z,0.00
2016-09-29T01:13:58.231Z,0.00
2016-09-29T01:14:58.725Z,0.00
2016-09-29T01:15:59.238Z,0.00
2016-09-29T01:16:59.902Z,0.00
2016-09-29T01:18:00.262Z,0.00
2016-09-29T01:19:00.786Z,0.00
2016-09-29T01:20:01.441Z,0.00
2016-09-29T01:21:01.803Z,0.00
2016-09-29T01:22:02.312Z,0.00
2016-09-29T01:23:02.824Z,0.00
2016-09-29T01:24:03.341Z,0.00
2016-09-29T01:25:03.849Z,0.00
2016-09-29T01:26:04.361Z,0.00
2016-09-29T01:27:04.877Z,0.00
2016-09-29T01:28:05.386Z,0.00
2016-09-29T01:29:05.904Z,0.00
2016-09-29T01:30:06.410Z,0.00
2016-09-29T01:31:06.921Z,0.00
2016-09-29T01:32:07.436Z,0.00
2016-09-29T01:33:07.946Z,0.00
2016-09-29T01:34:08.610Z,0.00
2016-09-29T01:35:08.972Z,0.00
2016-09-29T01:36:09.485Z,0.00
2016-09-29T01:37:10.017Z,0.00
2016-09-29T01:38:10.660Z,0.00
2016-09-29T01:39:11.023Z,0.00
2016-09-29T01:40:11.533Z,0.00
2016-09-29T01:41:12.044Z,0.00
2016-09-29T01:42:12.556Z,0.00
2016-09-29T01:43:13.068Z,0.00
2016-09-29T01:44:13.583Z,0.00
2016-09-29T01:45:14.098Z,0.00
2016-09-29T01:46:14.612Z,0.00
2016-09-29T01:47:15.272Z,0.00
2016-09-29T01:48:15.636Z,0.00
2016-09-29T01:49:16.153Z,0.00
2016-09-29T01:50:16.668Z,0.00
2016-09-29T01:51:17.192Z,0.00
2016-09-29T01:52:17.701Z,0.00
2016-09-29T01:53:18.219Z,0.00
2016-09-29T01:54:18.727Z,0.00
2016-09-29T01:55:19.242Z,0.00
2016-09-29T01:56:19.743Z,0.00
2016-09-29T01:57:20.264Z,0.00
2016-09-29T01:58:20.917Z,0.00
2016-09-29T01:59:21.429Z,0.00
2016-09-29T02:00:21.799Z,0.00
2016-09-29T02:01:22.457Z,0.00
2016-09-29T02:02:22.850Z,0.00
2016-09-29T02:03:23.339Z,0.00
2016-09-29T02:04:23.842Z,0.00
2016-09-29T02:05:24.361Z,0.00
2016-09-29T02:06:24.873Z,0.00
2016-09-29T02:07:25.395Z,0.00
2016-09-29T02:08:25.895Z,0.00
2016-09-29T02:09:26.409Z,0.00
2016-09-29T02:10:26.914Z,0.00
2016-09-29T02:11:27.425Z,0.00
2016-09-29T02:12:28.233Z,0.00
2016-09-29T02:13:28.445Z,0.00
2016-09-29T02:14:28.959Z,0.00
2016-09-29T02:15:29.470Z,0.00
2016-09-29T02:16:30.135Z,0.00
2016-09-29T02:17:30.496Z,0.00
2016-09-29T02:18:31.006Z,0.00
2016-09-29T02:19:31.521Z,0.00
2016-09-29T02:20:32.026Z,0.00
2016-09-29T02:21:32.539Z,0.00
2016-09-29T02:22:33.201Z,0.00
2016-09-29T02:23:33.561Z,0.00
2016-09-29T02:24:34.227Z,0.00
2016-09-29T02:25:34.592Z,0.00
2016-09-29T02:26:35.107Z,0.00
2016-09-29T02:27:35.774Z,0.00
2016-09-29T02:28:36.142Z,0.00
2016-09-29T02:29:36.662Z,0.00
2016-09-29T02:30:37.181Z,0.00
2016-09-29T02:31:37.690Z,0.00
2016-09-29T02:32:38.354Z,0.00
2016-09-29T02:33:38.724Z,0.00
2016-09-29T02:34:39.229Z,0.00
2016-09-29T02:35:39.744Z,0.00
2016-09-29T02:36:40.257Z,0.00
2016-09-29T02:37:40.769Z,0.00
2016-09-29T02:38:41.281Z,0.00
2016-09-29T02:39:41.795Z,0.00
2016-09-29T02:40:42.306Z,0.00
2016-09-29T02:41:42.965Z,0.00
2016-09-29T02:42:43.482Z,0.00
2016-09-29T02:43:43.993Z,0.00
2016-09-29T02:44:44.359Z,0.00
2016-09-29T02:45:45.025Z,0.00
2016-09-29T02:46:45.389Z,0.00
2016-09-29T02:47:45.906Z,0.00
2016-09-29T02:48:46.420Z,0.00
2016-09-29T02:49:46.930Z,0.00
2016-09-29T02:50:50.444Z,0.00
2016-09-29T02:51:47.952Z,0.00
2016-09-29T02:52:48.467Z,0.00
2016-09-29T02:53:49.133Z,0.00
2016-09-29T02:54:49.496Z,0.00
2016-09-29T02:55:50.008Z,0.00
2016-09-29T02:56:50.528Z,0.00
2016-09-29T02:57:51.030Z,0.00
2016-09-29T02:58:51.692Z,0.00
2016-09-29T02:59:52.055Z,0.00
2016-09-29T03:00:52.566Z,0.00
2016-09-29T03:01:53.087Z,0.00
2016-09-29T03:02:53.594Z,0.00
2016-09-29T03:03:54.122Z,0.00
2016-09-29T03:04:54.625Z,0.00
2016-09-29T03:05:55.145Z,0.00
2016-09-29T03:06:55.660Z,0.00
2016-09-29T03:07:56.325Z,0.00
2016-09-29T03:08:56.691Z,0.00
2016-09-29T03:09:57.353Z,0.00
2016-09-29T03:10:57.714Z,0.00
2016-09-29T03:11:58.234Z,0.00
2016-09-29T03:12:58.742Z,0.00
2016-09-29T03:13:59.254Z,0.00
2016-09-29T03:14:59.760Z,0.00
2016-09-29T03:16:00.275Z,0.00
2016-09-29T03:17:00.783Z,0.00
2016-09-29T03:18:01.296Z,0.00
2016-09-29T03:19:01.805Z,0.00
2016-09-29T03:20:02.316Z,0.00
2016-09-29T03:21:02.831Z,0.00
2016-09-29T03:22:03.486Z,0.00
2016-09-29T03:23:03.848Z,0.00
2016-09-29T03:24:04.366Z,0.00
2016-09-29T03:25:05.026Z,0.00
2016-09-29T03:26:05.387Z,0.00
2016-09-29T03:27:05.904Z,0.00
2016-09-29T03:28:06.414Z,0.00
2016-09-29T03:29:06.925Z,0.00
2016-09-29T03:30:08.939Z,0.00
2016-09-29T03:31:07.952Z,0.00
2016-09-29T03:32:08.460Z,0.00
2016-09-29T03:33:08.971Z,0.00
2016-09-29T03:34:09.486Z,0.00
2016-09-29T03:35:09.999Z,0.00
2016-09-29T03:36:10.653Z,0.00
2016-09-29T03:37:11.033Z,0.00
2016-09-29T03:38:11.530Z,0.00
2016-09-29T03:39:12.053Z,0.00
2016-09-29T03:40:12.552Z,0.00
2016-09-29T03:41:13.066Z,0.00
2016-09-29T03:42:13.727Z,0.00
2016-09-29T03:43:14.095Z,0.00
2016-09-29T03:44:14.616Z,0.00
2016-09-29T03:45:15.123Z,0.00
2016-09-29T03:46:15.641Z,0.00
2016-09-29T03:47:16.160Z,0.00
2016-09-29T03:48:16.664Z,0.00
2016-09-29T03:49:17.174Z,0.00
2016-09-29T03:50:17.695Z,0.00
2016-09-29T03:51:18.200Z,0.00
2016-09-29T03:52:18.737Z,0.00
2016-09-29T03:53:19.228Z,0.00
2016-09-29T03:54:19.741Z,0.00
2016-09-29T03:55:20.260Z,0.00
2016-09-29T03:56:20.913Z,0.00
2016-09-29T03:57:21.277Z,0.00
2016-09-29T03:58:21.847Z,0.00
2016-09-29T03:59:22.326Z,0.00
2016-09-29T04:00:22.818Z,0.00
2016-09-29T04:01:23.478Z,0.00
2016-09-29T04:02:23.874Z,0.00
2016-09-29T04:03:24.353Z,0.00
2016-09-29T04:04:24.877Z,0.00
2016-09-29T04:05:25.376Z,0.00
2016-09-29T04:06:25.891Z,0.00
2016-09-29T04:07:26.552Z,0.00
2016-09-29T04:08:26.915Z,0.00
2016-09-29T04:09:27.419Z,0.00
2016-09-29T04:10:27.953Z,0.00
2016-09-29T04:11:28.441Z,0.00
2016-09-29T04:12:28.955Z,0.00
2016-09-29T04:13:29.472Z,0.00
2016-09-29T04:14:29.983Z,0.00
2016-09-29T04:15:30.500Z,0.00
2016-09-29T04:16:31.158Z,0.00
2016-09-29T04:17:31.520Z,0.00
2016-09-29T04:18:32.036Z,0.00
2016-09-29T04:19:32.553Z,0.00
2016-09-29T04:20:33.073Z,0.00
2016-09-29T04:21:33.588Z,0.00
2016-09-29T04:22:34.101Z,0.00
2016-09-29T04:23:34.616Z,0.00
2016-09-29T04:24:35.125Z,0.00
2016-09-29T04:25:35.633Z,0.00
2016-09-29T04:26:36.151Z,0.00
2016-09-29T04:27:36.661Z,0.00
2016-09-29T04:28:37.180Z,0.00
2016-09-29T04:29:37.695Z,0.00
2016-09-29T04:30:38.206Z,0.00
2016-09-29T04:31:38.748Z,0.00
2016-09-29T04:32:39.233Z,0.00
2016-09-29T04:33:39.741Z,0.00
2016-09-29T04:34:40.257Z,0.00
2016-09-29T04:35:40.767Z,0.00
2016-09-29T04:36:41.276Z,0.00
2016-09-29T04:37:41.941Z,0.00
2016-09-29T04:38:42.311Z,0.00
2016-09-29T04:39:42.815Z,0.00
2016-09-29T04:40:43.330Z,0.00
2016-09-29T04:41:43.854Z,0.00
2016-09-29T04:42:44.565Z,0.00
2016-09-29T04:43:44.885Z,0.00
2016-09-29T04:44:45.396Z,0.00
2016-09-29T04:45:45.930Z,0.00
2016-09-29T04:46:46.417Z,0.00
2016-09-29T04:47:46.927Z,0.00
2016-09-29T04:48:47.441Z,0.00
2016-09-29T04:49:48.862Z,0.00
2016-09-29T04:50:48.480Z,0.00
2016-09-29T04:51:48.988Z,0.00
2016-09-29T04:52:49.498Z,0.00
2016-09-29T04:53:50.013Z,0.00
2016-09-29T04:54:50.527Z,0.00
2016-09-29T04:55:51.049Z,0.00
2016-09-29T04:56:51.562Z,0.00
2016-09-29T04:57:52.080Z,0.00
2016-09-29T04:58:52.749Z,0.00
2016-09-29T04:59:53.112Z,0.00
2016-09-29T05:00:53.635Z,0.00
2016-09-29T05:01:54.281Z,0.00
2016-09-29T05:02:54.790Z,0.00
2016-09-29T05:03:55.298Z,0.00
2016-09-29T05:04:55.664Z,0.00
2016-09-29T05:05:56.173Z,0.00
2016-09-29T05:06:56.682Z,0.00
2016-09-29T05:07:57.199Z,0.00
2016-09-29T05:08:57.706Z,0.00
2016-09-29T05:09:58.213Z,0.00
2016-09-29T05:10:58.726Z,0.00
2016-09-29T05:11:59.389Z,0.00
2016-09-29T05:12:59.743Z,0.00
2016-09-29T05:14:00.275Z,0.00
2016-09-29T05:15:00.772Z,0.00
2016-09-29T05:16:01.277Z,0.00
2016-09-29T05:17:01.791Z,0.00
2016-09-29T05:18:02.306Z,0.00
2016-09-29T05:19:02.821Z,0.00
2016-09-29T05:20:03.330Z,0.00
2016-09-29T05:21:03.991Z,0.00
2016-09-29T05:22:05.850Z,0.00
2016-09-29T05:23:04.878Z,0.00
2016-09-29T05:24:05.374Z,0.00
2016-09-29T05:25:05.914Z,0.00
2016-09-29T05:26:06.407Z,0.00
2016-09-29T05:27:07.063Z,0.00
2016-09-29T05:28:07.428Z,0.00
2016-09-29T05:29:07.949Z,1.00
2016-09-29T05:30:08.472Z,1.00
2016-09-29T05:31:08.967Z,1.00
2016-09-29T05:32:09.476Z,1.00
2016-09-29T05:33:09.997Z,1.00
2016-09-29T05:34:10.514Z,1.00
2016-09-29T05:35:11.036Z,1.00
2016-09-29T05:36:11.548Z,1.00
2016-09-29T05:37:12.211Z,1.00
2016-09-29T05:38:12.576Z,2.00
2016-09-29T05:39:13.101Z,2.00
2016-09-29T05:40:13.600Z,2.00
2016-09-29T05:41:14.110Z,2.00
2016-09-29T05:42:14.622Z,2.00
2016-09-29T05:43:15.286Z,2.00
2016-09-29T05:44:15.645Z,2.00
2016-09-29T05:45:16.149Z,2.00
2016-09-29T05:46:16.664Z,2.00
2016-09-29T05:47:17.173Z,3.00
2016-09-29T05:48:17.717Z,3.00
2016-09-29T05:49:18.204Z,3.00
2016-09-29T05:50:18.714Z,3.00
2016-09-29T05:51:19.228Z,3.00
2016-09-29T05:52:19.739Z,3.00
2016-09-29T05:53:20.252Z,3.00
2016-09-29T05:54:20.764Z,4.00
2016-09-29T05:55:21.278Z,4.00
2016-09-29T05:56:21.788Z,4.00
2016-09-29T05:57:22.325Z,4.00
2016-09-29T05:58:22.810Z,4.00
2016-09-29T05:59:23.326Z,4.00
2016-09-29T06:00:23.834Z,4.00
2016-09-29T06:01:24.353Z,4.00
2016-09-29T06:02:24.861Z,4.00
2016-09-29T06:03:25.530Z,4.00
2016-09-29T06:04:25.891Z,4.00
2016-09-29T06:05:26.401Z,4.00
2016-09-29T06:06:26.917Z,5.00
2016-09-29T06:07:27.448Z,5.00
2016-09-29T06:08:28.097Z,5.00
2016-09-29T06:09:28.453Z,5.00
2016-09-29T06:10:28.970Z,5.00
2016-09-29T06:11:29.486Z,5.00
2016-09-29T06:12:30.153Z,7.00
2016-09-29T06:13:30.517Z,8.00
2016-09-29T06:14:31.024Z,7.00
2016-09-29T06:15:31.686Z,5.00
2016-09-29T06:16:32.050Z,5.00
2016-09-29T06:17:32.572Z,5.00
2016-09-29T06:18:33.094Z,5.00
2016-09-29T06:19:33.598Z,5.00
2016-09-29T06:20:34.108Z,5.00
2016-09-29T06:21:34.619Z,5.00
2016-09-29T06:22:35.131Z,5.00
2016-09-29T06:23:35.646Z,5.00
2016-09-29T06:24:36.310Z,5.00
2016-09-29T06:25:36.818Z,5.00
2016-09-29T06:26:37.183Z,5.00
2016-09-29T06:27:37.843Z,5.00
2016-09-29T06:28:38.214Z,5.00
2016-09-29T06:29:38.723Z,5.00
2016-09-29T06:30:39.384Z,5.00
2016-09-29T06:31:39.750Z,5.00
2016-09-29T06:32:40.256Z,5.00
2016-09-29T06:33:40.767Z,5.00
2016-09-29T06:34:41.281Z,5.00
2016-09-29T06:35:41.794Z,5.00
2016-09-29T06:36:42.304Z,5.00
2016-09-29T06:37:42.820Z,5.00
2016-09-29T06:38:43.481Z,5.00
2016-09-29T06:39:43.873Z,5.00
2016-09-29T06:40:44.364Z,5.00
2016-09-29T06:41:44.896Z,5.00
2016-09-29T06:42:45.385Z,5.00
2016-09-29T06:43:45.901Z,6.00
2016-09-29T06:44:46.567Z,6.00
2016-09-29T06:45:46.929Z,6.00
2016-09-29T06:46:47.444Z,6.00
2016-09-29T06:47:47.962Z,6.00
2016-09-29T06:48:48.493Z,6.00
2016-09-29T06:49:49.068Z,6.00
2016-09-29T06:50:49.523Z,6.00
2016-09-29T06:51:50.177Z,6.00
2016-09-29T06:52:50.533Z,7.00
2016-09-29T06:53:51.196Z,7.00
2016-09-29T06:54:51.554Z,7.00
2016-09-29T06:55:52.092Z,7.00
2016-09-29T06:56:52.598Z,8.00
2016-09-29T06:57:54.443Z,8.00
2016-09-29T06:58:53.641Z,8.00
2016-09-29T06:59:54.117Z,10.00
2016-09-29T07:00:54.626Z,14.00
2016-09-29T07:01:55.143Z,14.00
2016-09-29T07:02:55.647Z,15.00
2016-09-29T07:03:56.162Z,18.00
2016-09-29T07:04:56.677Z,18.00
2016-09-29T07:05:57.181Z,16.00
2016-09-29T07:06:57.693Z,12.00
2016-09-29T07:07:58.507Z,15.00
2016-09-29T07:08:58.717Z,15.00
2016-09-29T07:09:59.242Z,14.00
2016-09-29T07:10:59.743Z,14.00
2016-09-29T07:12:00.254Z,17.00
2016-09-29T07:13:00.766Z,15.00
2016-09-29T07:14:01.273Z,21.00
2016-09-29T07:15:01.787Z,21.00
2016-09-29T07:16:02.301Z,21.00
2016-09-29T07:17:02.810Z,22.00
2016-09-29T07:18:03.321Z,22.00
2016-09-29T07:19:03.828Z,22.00
2016-09-29T07:20:04.360Z,21.00
2016-09-29T07:21:04.854Z,20.00
2016-09-29T07:22:05.369Z,22.00
2016-09-29T07:23:05.883Z,22.00
2016-09-29T07:24:06.397Z,20.00
2016-09-29T07:25:07.064Z,21.00
2016-09-29T07:26:07.444Z,22.00
2016-09-29T07:27:07.945Z,20.00
2016-09-29T07:28:08.484Z,23.00
2016-09-29T07:29:08.968Z,22.00
2016-09-29T07:30:09.487Z,20.00
2016-09-29T07:31:09.991Z,18.00
2016-09-29T07:32:10.505Z,19.00
2016-09-29T07:33:11.015Z,20.00
2016-09-29T07:34:11.678Z,20.00
2016-09-29T07:35:12.036Z,27.00
2016-09-29T07:36:12.553Z,28.00
2016-09-29T07:37:13.063Z,26.00
2016-09-29T07:38:13.582Z,24.00
2016-09-29T07:39:14.241Z,21.00
2016-09-29T07:40:14.606Z,21.00
2016-09-29T07:41:15.118Z,20.00
2016-09-29T07:42:15.632Z,21.00
2016-09-29T07:43:16.144Z,21.00
2016-09-29T07:44:16.659Z,18.00
2016-09-29T07:45:17.169Z,18.00
2016-09-29T07:46:17.677Z,20.00
2016-09-29T07:47:18.188Z,20.00
2016-09-29T07:48:18.852Z,21.00
2016-09-29T07:49:19.222Z,21.00
2016-09-29T07:50:19.721Z,21.00
2016-09-29T07:51:20.236Z,19.00
2016-09-29T07:52:20.748Z,16.00
2016-09-29T07:53:21.255Z,16.00
2016-09-29T07:54:21.764Z,16.00
2016-09-29T07:55:22.281Z,16.00
2016-09-29T07:56:22.795Z,17.00
2016-09-29T07:57:23.297Z,18.00
2016-09-29T07:58:23.807Z,17.00
2016-09-29T07:59:24.322Z,17.00
2016-09-29T08:00:24.831Z,17.00
2016-09-29T08:01:25.346Z,17.00
2016-09-29T08:02:25.856Z,17.00
2016-09-29T08:03:26.380Z,17.00
2016-09-29T08:04:26.898Z,17.00
2016-09-29T08:05:27.417Z,17.00
2016-09-29T08:06:27.934Z,17.00
2016-09-29T08:07:28.442Z,20.00
2016-09-29T08:08:28.954Z,23.00
2016-09-29T08:09:29.615Z,24.00
2016-09-29T08:10:29.975Z,22.00
2016-09-29T08:11:30.488Z,22.00
2016-09-29T08:12:31.000Z,21.00
2016-09-29T08:13:31.534Z,20.00
2016-09-29T08:14:32.174Z,19.00
2016-09-29T08:15:32.542Z,18.00
2016-09-29T08:16:33.203Z,18.00
2016-09-29T08:17:33.564Z,18.00
2016-09-29T08:18:34.074Z,20.00
2016-09-29T08:19:34.588Z,22.00
2016-09-29T08:20:35.102Z,22.00
2016-09-29T08:21:35.609Z,22.00
2016-09-29T08:22:36.122Z,21.00
2016-09-29T08:23:36.789Z,19.00
2016-09-29T08:24:37.149Z,18.00
2016-09-29T08:25:37.659Z,18.00
2016-09-29T08:26:38.174Z,17.00
2016-09-29T08:27:38.838Z,17.00
2016-09-29T08:28:39.352Z,17.00
2016-09-29T08:29:39.715Z,18.00
2016-09-29T08:30:40.227Z,17.00
2016-09-29T08:31:40.734Z,17.00
2016-09-29T08:32:41.396Z,17.00
2016-09-29T08:33:41.767Z,16.00
2016-09-29T08:34:43.332Z,17.00
2016-09-29T08:35:42.791Z,18.00
2016-09-29T08:36:43.309Z,20.00
2016-09-29T08:37:43.965Z,22.00
2016-09-29T08:38:44.330Z,26.00
2016-09-29T08:39:44.854Z,28.00
2016-09-29T08:40:45.368Z,29.00
2016-09-29T08:41:45.888Z,32.00
2016-09-29T08:42:46.548Z,37.00
2016-09-29T08:43:46.913Z,37.00
2016-09-29T08:44:47.430Z,34.00
2016-09-29T08:45:48.096Z,33.00
2016-09-29T08:46:48.454Z,28.00
2016-09-29T08:47:48.969Z,27.00
2016-09-29T08:48:49.485Z,25.00
2016-09-29T08:49:49.995Z,27.00
2016-09-29T08:50:50.825Z,28.00
2016-09-29T08:51:51.021Z,30.00
2016-09-29T08:52:51.532Z,32.00
2016-09-29T08:53:52.044Z,34.00
2016-09-29T08:54:52.734Z,34.00
2016-09-29T08:55:53.071Z,35.00
2016-09-29T08:56:53.585Z,33.00
2016-09-29T08:57:54.245Z,31.00
2016-09-29T08:58:54.608Z,31.00
2016-09-29T08:59:55.262Z,31.00
2016-09-29T09:00:55.623Z,31.00
2016-09-29T09:01:56.132Z,33.00
2016-09-29T09:02:56.647Z,33.00
2016-09-29T09:03:57.158Z,33.00
2016-09-29T09:04:57.667Z,32.00
2016-09-29T09:05:58.177Z,31.00
2016-09-29T09:06:58.687Z,31.00
2016-09-29T09:07:59.205Z,25.00
2016-09-29T09:08:59.726Z,28.00
2016-09-29T09:10:00.229Z,29.00
2016-09-29T09:11:00.891Z,28.00
2016-09-29T09:12:01.255Z,30.00
2016-09-29T09:13:01.764Z,32.00
2016-09-29T09:14:02.275Z,33.00
2016-09-29T09:15:02.939Z,33.00
2016-09-29T09:16:03.302Z,34.00
2016-09-29T09:17:03.815Z,34.00
2016-09-29T09:18:04.347Z,36.00
2016-09-29T09:19:04.848Z,31.00
2016-09-29T09:20:05.512Z,30.00
2016-09-29T09:21:05.878Z,30.00
2016-09-29T09:22:06.381Z,24.00
2016-09-29T09:23:06.891Z,23.00
2016-09-29T09:24:07.408Z,30.00
2016-09-29T09:25:07.922Z,35.00
2016-09-29T09:26:08.436Z,37.00
2016-09-29T09:27:08.951Z,37.00
2016-09-29T09:28:09.612Z,38.00
2016-09-29T09:29:10.116Z,41.00
2016-09-29T09:30:10.482Z,44.00
2016-09-29T09:31:11.003Z,44.00
2016-09-29T09:32:11.651Z,45.00
2016-09-29T09:33:12.020Z,47.00
2016-09-29T09:34:12.545Z,47.00
2016-09-29T09:35:13.034Z,47.00
2016-09-29T09:36:13.547Z,47.00
2016-09-29T09:37:14.207Z,47.00
2016-09-29T09:38:14.576Z,47.00
2016-09-29T09:39:15.083Z,46.00
2016-09-29T09:40:15.621Z,43.00
2016-09-29T09:41:16.124Z,44.00
2016-09-29T09:42:16.624Z,45.00
2016-09-29T09:43:17.281Z,39.00
2016-09-29T09:44:17.645Z,40.00
2016-09-29T09:45:18.160Z,44.00
2016-09-29T09:46:18.670Z,45.00
2016-09-29T09:47:19.178Z,45.00
2016-09-29T09:48:19.691Z,46.00
2016-09-29T09:49:20.206Z,44.00
2016-09-29T09:50:20.722Z,42.00
2016-09-29T09:51:21.228Z,44.00
2016-09-29T09:52:23.087Z,47.00
2016-09-29T09:53:22.399Z,47.00
2016-09-29T09:54:22.766Z,45.00
2016-09-29T09:55:23.286Z,45.00
2016-09-29T09:56:23.798Z,40.00
2016-09-29T09:57:24.312Z,42.00
2016-09-29T09:58:24.974Z,44.00
2016-09-29T09:59:25.333Z,45.00
2016-09-29T10:00:25.839Z,43.00
2016-09-29T10:01:26.376Z,45.00
2016-09-29T10:02:27.021Z,46.00
2016-09-29T10:03:27.383Z,47.00
2016-09-29T10:04:27.895Z,48.00
2016-09-29T10:05:28.409Z,48.00
2016-09-29T10:06:29.071Z,49.00
2016-09-29T10:07:29.430Z,51.00
2016-09-29T10:08:29.945Z,50.00
2016-09-29T10:09:30.454Z,50.00
2016-09-29T10:10:31.004Z,51.00
2016-09-29T10:11:31.482Z,47.00
2016-09-29T10:12:31.999Z,50.00
2016-09-29T10:13:32.508Z,47.00
2016-09-29T10:14:33.012Z,45.00
2016-09-29T10:15:33.529Z,40.00
2016-09-29T10:16:34.190Z,44.00
2016-09-29T10:17:34.553Z,43.00
2016-09-29T10:18:35.236Z,41.00
2016-09-29T10:19:35.568Z,39.00
2016-09-29T10:20:36.089Z,37.00
2016-09-29T10:21:36.765Z,34.00
2016-09-29T10:22:37.099Z,41.00
2016-09-29T10:23:37.763Z,43.00
2016-09-29T10:24:38.123Z,44.00
2016-09-29T10:25:38.635Z,44.00
2016-09-29T10:26:39.150Z,44.00
2016-09-29T10:27:39.673Z,42.00
2016-09-29T10:28:40.185Z,44.00
2016-09-29T10:29:40.698Z,46.00
2016-09-29T10:30:41.208Z,43.00
2016-09-29T10:31:41.722Z,44.00
2016-09-29T10:32:42.238Z,45.00
2016-09-29T10:33:42.905Z,45.00
2016-09-29T10:34:43.262Z,46.00
2016-09-29T10:35:43.922Z,46.00
2016-09-29T10:36:44.289Z,42.00
2016-09-29T10:37:44.805Z,39.00
2016-09-29T10:38:45.323Z,50.00
2016-09-29T10:39:45.830Z,50.00
2016-09-29T10:40:46.494Z,48.00
2016-09-29T10:41:46.857Z,46.00
2016-09-29T10:42:47.367Z,44.00
2016-09-29T10:43:47.879Z,40.00
2016-09-29T10:44:48.538Z,39.00
2016-09-29T10:45:48.895Z,38.00
2016-09-29T10:46:49.407Z,36.00
2016-09-29T10:47:49.923Z,36.00
2016-09-29T10:48:50.430Z,38.00
2016-09-29T10:49:50.951Z,40.00
2016-09-29T10:50:51.457Z,43.00
2016-09-29T10:51:51.968Z,45.00
2016-09-29T10:52:52.477Z,44.00
2016-09-29T10:53:52.994Z,49.00
2016-09-29T10:54:53.508Z,52.00
2016-09-29T10:55:54.017Z,49.00
2016-09-29T10:56:54.549Z,52.00
2016-09-29T10:57:55.043Z,53.00
2016-09-29T10:58:55.575Z,53.00
2016-09-29T10:59:56.068Z,51.00
2016-09-29T11:00:56.735Z,50.00
2016-09-29T11:01:57.095Z,49.00
2016-09-29T11:02:57.613Z,47.00
2016-09-29T11:03:58.119Z,46.00
2016-09-29T11:04:58.628Z,44.00
2016-09-29T11:05:59.144Z,40.00
2016-09-29T11:06:59.657Z,36.00
2016-09-29T11:08:00.172Z,35.00
2016-09-29T11:09:00.688Z,47.00
2016-09-29T11:10:01.207Z,47.00
2016-09-29T11:11:01.873Z,37.00
2016-09-29T11:12:02.237Z,45.00
2016-09-29T11:13:02.752Z,43.00
2016-09-29T11:14:03.294Z,39.00
2016-09-29T11:15:03.784Z,39.00
2016-09-29T11:16:04.478Z,41.00
2016-09-29T11:17:04.804Z,53.00
2016-09-29T11:18:05.317Z,51.00
2016-09-29T11:19:05.829Z,51.00
2016-09-29T11:20:06.362Z,47.00
2016-09-29T11:21:06.853Z,53.00
2016-09-29T11:22:07.368Z,53.00
2016-09-29T11:23:07.887Z,51.00
2016-09-29T11:24:08.385Z,53.00
2016-09-29T11:25:09.049Z,54.00
2016-09-29T11:26:09.408Z,54.00
2016-09-29T11:27:09.920Z,54.00
2016-09-29T11:28:10.432Z,54.00
2016-09-29T11:29:10.946Z,54.00
2016-09-29T11:30:11.456Z,52.00
2016-09-29T11:31:11.993Z,47.00
2016-09-29T11:32:12.478Z,54.00
2016-09-29T11:33:13.147Z,54.00
2016-09-29T11:34:13.505Z,53.00
2016-09-29T11:35:14.019Z,52.00
2016-09-29T11:36:14.531Z,55.00
2016-09-29T11:37:15.196Z,55.00
2016-09-29T11:38:15.553Z,56.00
2016-09-29T11:39:16.076Z,56.00
2016-09-29T11:40:16.580Z,56.00
2016-09-29T11:41:17.094Z,57.00
2016-09-29T11:42:17.755Z,57.00
2016-09-29T11:43:18.121Z,57.00
2016-09-29T11:44:18.634Z,55.00
2016-09-29T11:45:19.145Z,55.00
2016-09-29T11:46:21.032Z,56.00
2016-09-29T11:47:20.180Z,52.00
2016-09-29T11:48:20.723Z,56.00
2016-09-29T11:49:21.210Z,59.00
2016-09-29T11:50:21.871Z,59.00
2016-09-29T11:51:22.237Z,59.00
2016-09-29T11:52:22.749Z,59.00
2016-09-29T11:53:23.422Z,59.00
2016-09-29T11:54:23.767Z,59.00
2016-09-29T11:55:24.279Z,60.00
2016-09-29T11:56:24.962Z,60.00
2016-09-29T11:57:25.317Z,60.00
2016-09-29T11:58:25.813Z,60.00
2016-09-29T11:59:26.326Z,60.00
2016-09-29T12:00:26.841Z,60.00
2016-09-29T12:01:27.347Z,60.00
2016-09-29T12:02:27.858Z,61.00
2016-09-29T12:03:28.369Z,61.00
2016-09-29T12:04:28.884Z,61.00
2016-09-29T12:05:29.387Z,62.00
2016-09-29T12:06:29.900Z,62.00
2016-09-29T12:07:30.563Z,62.00
2016-09-29T12:08:31.074Z,63.00
2016-09-29T12:09:31.440Z,61.00
2016-09-29T12:10:31.952Z,62.00
2016-09-29T12:11:32.463Z,64.00
2016-09-29T12:12:32.974Z,64.00
2016-09-29T12:13:33.485Z,64.00
2016-09-29T12:14:33.997Z,64.00
2016-09-29T12:15:34.655Z,65.00
2016-09-29T12:16:35.319Z,65.00
2016-09-29T12:17:35.687Z,65.00
2016-09-29T12:18:36.049Z,65.00
2016-09-29T12:19:36.709Z,66.00
2016-09-29T12:20:37.065Z,66.00
2016-09-29T12:21:37.579Z,66.00
2016-09-29T12:22:38.092Z,67.00
2016-09-29T12:23:38.610Z,68.00
2016-09-29T12:24:39.126Z,69.00
2016-09-29T12:25:39.786Z,69.00
2016-09-29T12:26:40.150Z,70.00
2016-09-29T12:27:40.665Z,71.00
2016-09-29T12:28:41.325Z,71.00
2016-09-29T12:29:41.690Z,69.00
2016-09-29T12:30:42.201Z,60.00
2016-09-29T12:31:42.707Z,73.00
2016-09-29T12:32:43.371Z,73.00
2016-09-29T12:33:43.758Z,74.00
2016-09-29T12:34:44.233Z,74.00
2016-09-29T12:35:44.746Z,74.00
2016-09-29T12:36:45.263Z,68.00
2016-09-29T12:37:45.919Z,58.00
2016-09-29T12:38:46.276Z,55.00
2016-09-29T12:39:46.787Z,62.00
2016-09-29T12:40:47.302Z,64.00
2016-09-29T12:41:47.808Z,58.00
2016-09-29T12:42:48.473Z,52.00
2016-09-29T12:43:48.835Z,69.00
2016-09-29T12:44:49.346Z,75.00
2016-09-29T12:45:49.859Z,70.00
2016-09-29T12:46:50.527Z,67.00
2016-09-29T12:47:50.886Z,49.00
2016-09-29T12:48:51.395Z,35.00
2016-09-29T12:49:51.905Z,25.00
2016-09-29T12:50:52.417Z,23.00
2016-09-29T12:51:52.930Z,29.00
2016-09-29T12:52:53.440Z,28.00
2016-09-29T12:53:53.954Z,30.00
2016-09-29T12:54:54.767Z,30.00
2016-09-29T12:55:55.130Z,31.00
2016-09-29T12:56:55.489Z,30.00
2016-09-29T12:57:55.998Z,29.00
2016-09-29T12:58:56.660Z,27.00
2016-09-29T12:59:57.027Z,27.00
2016-09-29T13:00:57.555Z,28.00
2016-09-29T13:01:58.060Z,26.00
2016-09-29T13:02:58.571Z,51.00
2016-09-29T13:03:59.236Z,67.00
2016-09-29T13:04:59.600Z,74.00
2016-09-29T13:06:00.100Z,80.00
2016-09-29T13:07:00.616Z,81.00
2016-09-29T13:08:01.134Z,81.00
2016-09-29T13:09:01.794Z,81.00
2016-09-29T13:10:02.159Z,82.00
2016-09-29T13:11:02.672Z,82.00
2016-09-29T13:12:03.184Z,77.00
2016-09-29T13:13:03.696Z,76.00